Time;durP1;ratioP1;P1;durP2;ratioP2;P2;SDS_P1;SDS_P2;PMS_P1;PMS_P2;Temp;Humidity;BMP_temperature;BMP_pressure;BME280_temperature;BME280_humidity;BME280_pressure;Samples;Min_cycle;Max_cycle;Signal;HPM_P1;HPM_P2
2023/10/28 00:00:16;;;;;;;0.60;0.50;;;12.60;59.50;;;;;;20351;6814;286615;-75
2023/10/28 00:02:51;;;;;;;0.50;0.50;;;12.70;59.10;;;;;;20561;6814;122008;-75
2023/10/28 00:05:27;;;;;;;0.40;0.40;;;12.60;59.30;;;;;;20571;6814;119840;-74
2023/10/28 00:08:03;;;;;;;0.53;0.53;;;12.40;59.90;;;;;;20296;6814;300925;-75
2023/10/28 00:10:40;;;;;;;0.50;0.40;;;12.50;59.50;;;;;;20355;6814;316159;-75
2023/10/28 00:13:14;;;;;;;0.40;0.40;;;12.80;58.50;;;;;;20580;6814;118287;-75
2023/10/28 00:15:49;;;;;;;1.20;0.50;;;12.70;58.70;;;;;;20353;6814;307378;-75
2023/10/28 00:18:25;;;;;;;3.80;0.60;;;12.80;58.40;;;;;;20501;6814;118347;-75
2023/10/28 00:21:01;;;;;;;1.03;0.50;;;12.70;58.80;;;;;;20371;6814;308637;-75
2023/10/28 00:23:36;;;;;;;0.63;0.47;;;12.80;58.30;;;;;;20581;6814;117368;-74
2023/10/28 00:26:12;;;;;;;0.77;0.40;;;12.70;58.70;;;;;;20367;6815;338170;-75
2023/10/28 00:28:47;;;;;;;0.40;0.40;;;12.70;58.30;;;;;;20601;6815;117378;-75
2023/10/28 00:31:23;;;;;;;0.50;0.50;;;12.60;58.80;;;;;;20577;6815;117842;-75
2023/10/28 00:34:00;;;;;;;0.93;0.37;;;12.40;59.60;;;;;;20551;6815;117772;-75
2023/10/28 00:36:36;;;;;;;0.40;0.40;;;12.20;60.20;;;;;;20571;6815;117357;-75
2023/10/28 00:39:13;;;;;;;1.50;0.60;;;12.10;60.80;;;;;;20118;6815;286389;-75
2023/10/28 00:41:48;;;;;;;3.27;0.47;;;12.30;60.10;;;;;;20540;6815;117595;-75
2023/10/28 00:44:24;;;;;;;1.98;0.70;;;12.40;59.70;;;;;;20272;6815;312673;-75
2023/10/28 00:47:02;;;;;;;1.03;0.40;;;12.60;59.50;;;;;;20464;6815;120549;-76
2023/10/28 00:49:35;;;;;;;0.50;0.50;;;12.60;59.70;;;;;;20189;6815;317763;-75
2023/10/28 00:52:12;;;;;;;1.10;0.60;;;12.70;58.80;;;;;;20336;6814;278902;-75
2023/10/28 00:54:47;;;;;;;1.03;0.87;;;13.00;58.00;;;;;;20358;6815;282610;-75
2023/10/28 00:57:23;;;;;;;0.60;0.40;;;13.30;57.00;;;;;;20335;6815;309444;-74
2023/10/28 00:59:59;;;;;;;1.10;0.50;;;13.50;56.20;;;;;;20372;6815;440446;-75
2023/10/28 01:02:34;;;;;;;3.43;0.33;;;13.60;55.70;;;;;;20555;6814;117270;-75
2023/10/28 01:05:11;;;;;;;3.40;0.50;;;13.40;56.30;;;;;;20600;6814;118942;-76
2023/10/28 01:07:45;;;;;;;1.10;0.52;;;13.00;57.30;;;;;;20312;6814;341015;-75
2023/10/28 01:10:24;;;;;;;0.93;0.57;;;13.10;57.00;;;;;;20599;6814;123410;-75
2023/10/28 01:13:00;;;;;;;0.57;0.47;;;12.90;57.40;;;;;;20578;6814;119510;-74
2023/10/28 01:15:35;;;;;;;1.10;0.50;;;12.70;58.10;;;;;;20378;6814;293560;-75
2023/10/28 01:18:11;;;;;;;2.50;0.73;;;12.80;58.00;;;;;;20520;6814;120293;-75
2023/10/28 01:20:49;;;;;;;0.30;0.30;;;12.70;58.30;;;;;;20586;6814;118091;-74
2023/10/28 01:23:22;;;;;;;0.97;0.37;;;12.40;58.80;;;;;;20619;6810;117387;-75
2023/10/28 01:25:59;;;;;;;1.90;0.77;;;12.20;59.50;;;;;;20574;6810;117843;-75
2023/10/28 01:28:35;;;;;;;1.63;0.57;;;12.00;60.10;;;;;;20290;6810;310470;-75
2023/10/28 01:31:09;;;;;;;0.98;0.60;;;12.30;59.80;;;;;;20389;6814;313090;-75
2023/10/28 02:27:30;;;;;;;1.77;1.67;;;13.70;54.00;;;;;;21025;6514;82974;-73
2023/10/28 02:29:55;;;;;;;5.67;1.00;;;13.40;54.70;;;;;;20665;6827;120979;-72
2023/10/28 02:32:21;;;;;;;3.65;1.20;;;13.00;55.70;;;;;;20476;6816;306884;-73
2023/10/28 02:34:46;;;;;;;2.37;1.00;;;13.00;55.70;;;;;;20472;6816;322930;-73
2023/10/28 02:37:14;;;;;;;2.30;1.00;;;13.20;55.50;;;;;;20593;6853;117422;-73
2023/10/28 02:39:38;;;;;;;3.72;1.35;;;13.10;55.90;;;;;;20325;6869;338709;-73
2023/10/28 02:42:04;;;;;;;3.05;1.30;;;13.10;55.40;;;;;;20643;6830;118088;-73
2023/10/28 02:44:29;;;;;;;3.05;0.90;;;13.00;55.80;;;;;;20634;6843;117231;-72
2023/10/28 02:46:54;;;;;;;4.20;0.80;;;12.70;56.50;;;;;;20621;6843;117397;-73
2023/10/28 02:49:21;;;;;;;5.43;1.05;;;12.50;57.20;;;;;;20632;6843;118148;-73
2023/10/28 02:51:46;;;;;;;1.73;1.03;;;12.40;57.80;;;;;;20552;6861;146220;-73
2023/10/28 02:54:11;;;;;;;2.95;0.77;;;12.20;58.20;;;;;;20588;6856;121090;-73
2023/10/28 02:56:38;;;;;;;3.53;1.17;;;12.10;58.60;;;;;;20592;6856;117076;-72
2023/10/28 02:59:02;;;;;;;3.93;1.40;;;12.10;59.70;;;;;;20374;6856;309397;-73
2023/10/28 03:01:28;;;;;;;3.55;1.50;;;12.30;58.20;;;;;;20582;6856;117484;-73
2023/10/28 03:03:53;;;;;;;1.42;0.95;;;12.40;58.20;;;;;;20575;6856;117356;-73
2023/10/28 03:06:19;;;;;;;2.35;0.82;;;12.20;58.40;;;;;;20595;6856;117932;-73
2023/10/28 03:08:45;;;;;;;3.93;1.30;;;12.10;58.90;;;;;;20650;6831;117282;-72
2023/10/28 03:11:10;;;;;;;4.55;1.65;;;12.00;59.30;;;;;;20435;6831;319862;-73
2023/10/28 03:13:36;;;;;;;4.87;1.48;;;12.20;58.30;;;;;;20645;6842;118148;-72
2023/10/28 03:16:01;;;;;;;2.62;1.10;;;12.30;58.30;;;;;;20578;6856;121737;-72
2023/10/28 03:18:28;;;;;;;3.78;1.05;;;12.20;58.50;;;;;;20647;6842;120900;-73
2023/10/28 03:20:55;;;;;;;3.12;1.12;;;12.10;58.90;;;;;;20643;6842;117695;-75
2023/10/28 03:23:19;;;;;;;3.50;1.13;;;11.90;59.50;;;;;;20585;6856;117171;-77
2023/10/28 03:25:45;;;;;;;2.83;1.27;;;11.90;59.50;;;;;;20610;6842;117307;-75
2023/10/28 03:28:10;;;;;;;2.95;1.25;;;11.80;59.80;;;;;;20468;6827;305534;-73
2023/10/28 03:30:36;;;;;;;2.92;1.65;;;12.00;58.60;;;;;;20439;6827;340632;-73
2023/10/28 03:33:01;;;;;;;3.00;1.03;;;12.40;57.20;;;;;;20642;6841;117185;-73
2023/10/28 03:35:27;;;;;;;5.00;1.40;;;12.50;57.40;;;;;;20393;6851;309121;-73
2023/10/28 03:37:52;;;;;;;4.47;1.60;;;12.70;56.60;;;;;;20392;6849;315597;-73
2023/10/28 03:40:18;;;;;;;4.87;1.60;;;12.90;56.40;;;;;;20456;6835;307770;-73
2023/10/28 03:42:44;;;;;;;4.43;1.47;;;13.20;55.30;;;;;;20419;6850;278811;-73
2023/10/28 03:45:10;;;;;;;3.67;1.50;;;13.50;54.20;;;;;;20377;6850;317304;-73
2023/10/28 03:47:35;;;;;;;4.20;1.20;;;13.50;54.20;;;;;;20636;6841;117237;-73
2023/10/28 03:50:01;;;;;;;3.43;1.50;;;13.30;54.80;;;;;;20403;6841;337501;-76
2023/10/28 03:52:26;;;;;;;4.18;1.50;;;13.30;54.50;;;;;;20381;6865;296599;-76
2023/10/28 03:54:52;;;;;;;3.12;1.55;;;13.40;54.10;;;;;;20441;6841;292833;-75
2023/10/28 03:57:18;;;;;;;4.07;1.30;;;13.60;54.50;;;;;;20650;6841;117202;-75
2023/10/28 03:59:46;;;;;;;3.83;1.20;;;13.40;54.50;;;;;;20626;6841;118948;-73
2023/10/28 04:02:09;;;;;;;5.25;1.60;;;13.10;55.30;;;;;;20437;6841;308000;-73
2023/10/28 04:04:35;;;;;;;7.05;1.62;;;13.10;54.90;;;;;;20645;6841;121027;-74
2023/10/28 04:07:00;;;;;;;3.78;1.20;;;13.00;55.40;;;;;;20638;6841;121421;-73
2023/10/28 04:09:26;;;;;;;4.10;1.50;;;12.70;56.00;;;;;;20413;6841;314773;-74
2023/10/28 04:11:52;;;;;;;4.17;1.40;;;12.70;56.10;;;;;;20619;6841;117626;-73
2023/10/28 04:14:18;;;;;;;2.17;1.33;;;12.70;55.90;;;;;;20627;6841;117291;-73
2023/10/28 04:16:43;;;;;;;3.77;1.60;;;12.40;56.40;;;;;;20426;6841;288804;-73
2023/10/28 04:19:09;;;;;;;2.77;1.30;;;12.50;56.00;;;;;;20401;6841;330734;-73
2023/10/28 04:21:35;;;;;;;3.47;1.27;;;12.70;55.40;;;;;;20605;6841;117173;-73
2023/10/28 04:24:01;;;;;;;2.20;1.20;;;12.70;55.80;;;;;;20613;6841;118884;-74
2023/10/28 04:26:26;;;;;;;3.13;1.40;;;12.40;56.50;;;;;;20420;6841;309373;-74
2023/10/28 04:28:52;;;;;;;4.53;1.03;;;12.40;55.90;;;;;;20619;6841;117438;-74
2023/10/28 04:31:21;;;;;;;3.15;1.50;;;12.30;56.20;;;;;;20419;6841;309473;-74
2023/10/28 04:33:46;;;;;;;2.85;1.62;;;12.40;55.80;;;;;;20403;6841;279313;-74
2023/10/28 04:36:12;;;;;;;2.70;1.07;;;12.70;55.90;;;;;;20629;6841;117294;-76
2023/10/28 04:38:40;;;;;;;4.90;1.23;;;12.50;55.70;;;;;;20625;6841;118389;-74
2023/10/28 04:41:03;;;;;;;2.03;1.20;;;12.30;56.40;;;;;;20397;6841;337445;-75
2023/10/28 04:43:29;;;;;;;2.30;1.33;;;12.30;56.00;;;;;;20629;6841;117355;-74
2023/10/28 04:45:54;;;;;;;2.63;1.07;;;12.20;56.30;;;;;;20602;6841;122720;-74
2023/10/28 04:48:21;;;;;;;4.07;1.80;;;12.00;57.00;;;;;;20642;6840;121340;-73
2023/10/28 04:50:47;;;;;;;4.55;1.20;;;11.80;57.60;;;;;;20632;6841;118766;-74
2023/10/28 04:53:12;;;;;;;4.53;1.40;;;11.60;58.00;;;;;;20433;6841;279488;-74
2023/10/28 04:55:37;;;;;;;3.75;1.30;;;11.80;57.60;;;;;;20646;6841;117658;-74
2023/10/28 04:58:05;;;;;;;4.07;1.30;;;11.90;57.20;;;;;;20389;6841;311830;-73
2023/10/28 05:00:29;;;;;;;2.43;1.30;;;11.90;57.10;;;;;;20631;6841;117073;-74
2023/10/28 05:02:54;;;;;;;3.80;1.43;;;11.90;57.40;;;;;;20409;6841;281650;-74
2023/10/28 05:05:20;;;;;;;2.15;1.10;;;12.00;56.70;;;;;;20607;6841;117353;-74
2023/10/28 05:07:46;;;;;;;2.17;1.07;;;12.00;57.10;;;;;;20398;6841;315361;-74
2023/10/28 05:10:11;;;;;;;2.78;1.27;;;12.10;56.60;;;;;;20622;6841;118210;-74
2023/10/28 05:12:39;;;;;;;1.73;0.70;;;12.00;56.90;;;;;;20624;6841;120778;-74
2023/10/28 05:15:02;;;;;;;2.43;1.30;;;11.80;57.50;;;;;;20612;6841;117098;-75
2023/10/28 05:17:28;;;;;;;3.27;1.40;;;11.70;58.10;;;;;;20414;6841;308034;-71
2023/10/28 05:19:53;;;;;;;5.00;1.30;;;11.80;57.30;;;;;;20538;6841;121005;-72
2023/10/28 05:22:19;;;;;;;3.27;1.30;;;11.90;57.60;;;;;;20406;6841;316632;-72
2023/10/28 05:24:45;;;;;;;3.80;1.40;;;12.00;56.60;;;;;;20396;6841;279355;-72
2023/10/28 05:27:11;;;;;;;0.90;0.67;;;12.30;56.00;;;;;;20654;6841;118490;-72
2023/10/28 05:29:37;;;;;;;1.87;0.93;;;12.20;55.90;;;;;;20618;6841;117534;-71
2023/10/28 05:32:02;;;;;;;1.80;1.08;;;12.00;56.60;;;;;;20386;6841;308400;-73
2023/10/28 05:34:28;;;;;;;1.83;1.10;;;12.20;55.70;;;;;;20608;6841;121432;-73
2023/10/28 05:36:54;;;;;;;2.23;1.10;;;12.10;56.00;;;;;;20373;6841;281895;-73
2023/10/28 05:39:22;;;;;;;3.15;1.17;;;12.30;55.30;;;;;;20313;6841;310827;-73
2023/10/28 05:41:48;;;;;;;1.62;1.12;;;12.50;54.60;;;;;;20304;6841;338519;-73
2023/10/28 05:44:14;;;;;;;1.87;1.00;;;12.80;53.90;;;;;;20370;6841;309468;-73
2023/10/28 05:46:39;;;;;;;4.45;1.12;;;12.90;53.40;;;;;;20385;6841;338042;-73
2023/10/28 05:49:05;;;;;;;1.40;1.00;;;12.90;54.10;;;;;;20612;6841;117071;-73
2023/10/28 05:51:35;;;;;;;2.53;1.13;;;12.90;53.80;;;;;;20405;6841;294074;-73
2023/10/28 05:53:57;;;;;;;3.03;1.30;;;12.80;53.30;;;;;;20640;6841;118786;-73
2023/10/28 05:56:23;;;;;;;1.70;1.00;;;12.40;55.30;;;;;;20636;6841;118407;-74
2023/10/28 05:58:48;;;;;;;3.53;1.50;;;12.40;54.80;;;;;;20447;6841;314204;-77
2023/10/28 06:01:14;;;;;;;4.95;0.95;;;12.50;54.20;;;;;;20661;6840;117143;-76
2023/10/28 06:03:40;;;;;;;1.83;1.17;;;12.50;54.70;;;;;;20648;6841;117095;-77
2023/10/28 06:06:06;;;;;;;2.57;1.10;;;12.30;55.30;;;;;;20470;6849;117697;-76
2023/10/28 06:08:31;;;;;;;2.87;1.20;;;12.20;55.90;;;;;;20427;6836;344810;-76
2023/10/28 06:10:57;;;;;;;1.77;1.20;;;12.30;54.90;;;;;;20428;6836;311808;-75
2023/10/28 06:13:22;;;;;;;3.47;1.43;;;12.60;54.20;;;;;;20648;6836;121723;-76
2023/10/28 06:15:48;;;;;;;4.43;1.33;;;12.60;54.50;;;;;;20424;6836;299520;-76
2023/10/28 06:18:13;;;;;;;4.03;1.33;;;12.70;53.80;;;;;;20648;6836;117246;-76
2023/10/28 06:20:40;;;;;;;2.20;0.93;;;12.60;54.30;;;;;;20636;6836;117457;-77
2023/10/28 06:23:06;;;;;;;1.57;1.03;;;12.50;55.00;;;;;;20651;6836;117735;-77
2023/10/28 06:25:31;;;;;;;3.03;1.10;;;12.30;55.50;;;;;;20352;6836;278129;-77
2023/10/28 06:27:58;;;;;;;3.12;1.12;;;12.50;55.10;;;;;;20507;6836;130913;-77
2023/10/28 06:30:24;;;;;;;2.87;1.13;;;12.50;55.10;;;;;;20409;6836;295440;-78
2023/10/28 06:32:49;;;;;;;2.53;1.20;;;12.60;54.10;;;;;;20456;6836;307322;-76
2023/10/28 06:35:16;;;;;;;2.63;0.97;;;13.00;53.60;;;;;;20666;6836;117563;-79
2023/10/28 06:37:41;;;;;;;1.40;1.17;;;12.90;54.00;;;;;;20425;6836;311436;-77
2023/10/28 06:40:10;;;;;;;2.50;1.10;;;13.30;52.80;;;;;;20427;6837;307818;-78
2023/10/28 06:42:37;;;;;;;2.10;1.27;;;13.30;52.80;;;;;;20451;6837;308144;-76
2023/10/28 06:45:02;;;;;;;2.22;1.30;;;13.50;52.20;;;;;;20451;6837;312300;-76
2023/10/28 06:47:27;;;;;;;3.22;1.10;;;13.70;52.00;;;;;;20657;6837;117354;-76
2023/10/28 06:49:53;;;;;;;1.85;0.88;;;13.20;53.50;;;;;;20645;6837;121576;-77
2023/10/28 06:52:19;;;;;;;2.70;1.37;;;13.20;53.50;;;;;;20450;6837;314835;-78
2023/10/28 06:54:45;;;;;;;3.03;1.50;;;13.30;52.90;;;;;;20438;6837;307582;-77
2023/10/28 06:57:10;;;;;;;3.10;1.20;;;13.50;52.10;;;;;;20448;6837;277411;-77
2023/10/28 06:59:36;;;;;;;2.67;1.15;;;13.70;51.70;;;;;;20659;6837;120834;-78
2023/10/28 07:02:02;;;;;;;1.62;1.20;;;13.60;52.50;;;;;;20654;6837;116893;-77
2023/10/28 07:04:27;;;;;;;2.20;1.30;;;13.30;53.20;;;;;;20445;6837;330055;-78
2023/10/28 07:06:54;;;;;;;1.98;1.23;;;13.30;53.20;;;;;;20628;6837;118037;-78
2023/10/28 07:09:21;;;;;;;4.30;1.17;;;13.30;53.90;;;;;;20672;6837;118103;-78
2023/10/28 07:11:46;;;;;;;1.98;1.05;;;13.20;54.70;;;;;;20648;6835;117271;-78
2023/10/28 07:14:12;;;;;;;1.40;1.10;;;13.00;55.30;;;;;;20665;6836;117088;-77
2023/10/28 07:16:38;;;;;;;2.70;0.98;;;12.90;55.80;;;;;;20661;6836;117173;-78
2023/10/28 07:19:03;;;;;;;2.20;1.07;;;12.80;56.20;;;;;;20654;6836;116744;-78
2023/10/28 07:21:29;;;;;;;2.20;0.82;;;12.80;57.10;;;;;;20669;6836;117483;-79
2023/10/28 07:23:55;;;;;;;1.23;1.10;;;12.80;57.00;;;;;;20612;6836;117102;-78
2023/10/28 07:26:22;;;;;;;2.50;1.40;;;12.80;57.30;;;;;;20386;6836;314823;-79
2023/10/28 07:28:48;;;;;;;1.90;1.00;;;13.00;57.10;;;;;;20376;6836;331678;-77
2023/10/28 07:31:15;;;;;;;2.67;1.20;;;13.40;57.90;;;;;;20557;6836;116779;-77
2023/10/28 07:33:40;;;;;;;2.50;1.20;;;13.40;57.90;;;;;;20628;6836;117186;-78
2023/10/28 07:36:06;;;;;;;2.23;1.10;;;13.30;58.40;;;;;;20639;6836;119239;-78
2023/10/28 07:38:32;;;;;;;3.37;1.58;;;13.30;58.40;;;;;;20438;6836;287451;-78
2023/10/28 07:40:57;;;;;;;1.17;1.00;;;13.50;58.20;;;;;;20637;6836;122370;-78
2023/10/28 07:43:23;;;;;;;2.57;1.20;;;13.60;58.40;;;;;;20635;6836;123762;-77
2023/10/28 07:45:49;;;;;;;1.67;1.58;;;13.60;58.70;;;;;;20624;6836;121017;-78
2023/10/28 07:48:15;;;;;;;3.73;2.43;;;13.60;59.50;;;;;;20626;6836;117597;-78
2023/10/28 07:50:41;;;;;;;3.70;2.50;;;13.60;59.50;;;;;;20634;6837;124274;-78
2023/10/28 07:53:06;;;;;;;3.80;2.83;;;13.70;59.90;;;;;;20421;6837;314052;-78
2023/10/28 07:55:33;;;;;;;3.23;2.87;;;14.30;58.40;;;;;;20626;6837;118061;-78
2023/10/28 07:57:58;;;;;;;2.70;2.50;;;14.30;58.40;;;;;;20622;6837;146420;-78
2023/10/28 08:00:24;;;;;;;5.12;2.60;;;14.30;58.50;;;;;;20638;6837;118013;-74
2023/10/28 08:02:50;;;;;;;3.45;2.42;;;14.20;58.70;;;;;;20635;6837;116934;-75
2023/10/28 08:05:18;;;;;;;3.53;3.23;;;14.20;58.90;;;;;;20632;6837;122518;-77
2023/10/28 08:07:44;;;;;;;3.57;2.90;;;14.20;59.20;;;;;;20568;6837;129395;-72
2023/10/28 08:10:09;;;;;;;3.53;2.87;;;14.20;59.50;;;;;;20640;6837;117603;-70
2023/10/28 08:12:35;;;;;;;3.57;2.97;;;14.20;59.70;;;;;;20421;6837;278756;-70
2023/10/28 08:15:07;;;;;;;3.78;2.97;;;14.40;57.30;;;;;;20434;6837;283225;-72
2023/10/28 08:17:31;;;;;;;3.95;3.47;;;14.90;56.20;;;;;;20444;6837;284963;-72
2023/10/28 08:19:57;;;;;;;3.67;3.30;;;15.30;55.30;;;;;;20376;6837;280904;-72
2023/10/28 08:22:24;;;;;;;4.00;2.40;;;15.60;54.40;;;;;;20445;6837;278287;-72
2023/10/28 08:24:48;;;;;;;2.30;2.10;;;15.90;53.50;;;;;;20668;6835;117702;-72
2023/10/28 08:27:13;;;;;;;3.25;1.90;;;15.80;54.20;;;;;;20687;6836;121693;-72
2023/10/28 08:29:39;;;;;;;4.17;1.80;;;15.70;54.90;;;;;;20678;6836;121908;-72
2023/10/28 08:32:06;;;;;;;4.28;2.22;;;15.50;54.00;;;;;;20447;6836;337151;-72
2023/10/28 08:34:31;;;;;;;2.53;2.10;;;15.50;54.00;;;;;;20432;6836;336767;-72
2023/10/28 08:36:56;;;;;;;2.55;1.70;;;15.80;53.00;;;;;;20607;6836;117740;-70
2023/10/28 08:39:23;;;;;;;3.97;2.17;;;15.70;53.70;;;;;;20334;6836;316808;-72
2023/10/28 08:41:48;;;;;;;3.92;1.85;;;15.80;52.40;;;;;;20288;6836;284426;-72
2023/10/28 08:44:17;;;;;;;1.90;1.60;;;16.10;51.60;;;;;;20461;6836;120284;-72
2023/10/28 08:46:42;;;;;;;2.97;2.03;;;16.00;52.40;;;;;;20601;6836;119101;-72
2023/10/28 08:49:08;;;;;;;2.10;2.00;;;15.80;53.30;;;;;;20592;6836;121196;-70
2023/10/28 08:51:33;;;;;;;4.28;1.90;;;15.70;54.10;;;;;;20558;6836;116973;-73
2023/10/28 08:53:58;;;;;;;5.50;2.03;;;15.70;54.80;;;;;;20578;6836;117222;-70
2023/10/28 08:56:24;;;;;;;2.07;1.97;;;15.70;54.90;;;;;;20610;6836;117707;-73
2023/10/28 08:58:50;;;;;;;6.13;3.80;;;15.60;55.10;;;;;;20642;6836;117367;-72
2023/10/28 09:01:16;;;;;;;2.60;2.10;;;15.70;52.70;;;;;;20434;6837;307722;-72
2023/10/28 09:03:43;;;;;;;3.20;2.00;;;15.70;52.70;;;;;;20602;6837;131165;-73
2023/10/28 09:06:07;;;;;;;3.35;2.10;;;15.80;53.30;;;;;;20418;6837;278669;-72
2023/10/28 09:08:33;;;;;;;2.92;1.87;;;16.00;51.50;;;;;;20664;6837;121942;-73
2023/10/28 09:10:58;;;;;;;3.78;1.65;;;16.00;52.30;;;;;;20531;6837;117476;-73
2023/10/28 09:13:26;;;;;;;3.83;2.30;;;16.00;51.00;;;;;;20413;6837;309565;-72
2023/10/28 09:15:52;;;;;;;1.67;1.57;;;16.00;51.00;;;;;;20641;6837;142401;-73
2023/10/28 09:18:17;;;;;;;2.20;1.60;;;16.00;52.00;;;;;;20622;6837;117275;-73
2023/10/28 09:20:43;;;;;;;2.17;1.10;;;15.90;52.70;;;;;;20639;6837;118958;-71
2023/10/28 09:23:09;;;;;;;3.10;1.55;;;15.80;53.30;;;;;;20579;6837;117205;-73
2023/10/28 09:25:34;;;;;;;3.30;1.70;;;15.70;53.60;;;;;;20415;6837;279304;-72
2023/10/28 09:28:00;;;;;;;3.92;2.17;;;15.90;51.40;;;;;;20318;6837;306957;-74
2023/10/28 09:30:26;;;;;;;2.95;1.70;;;16.50;48.40;;;;;;20275;6837;321314;-73
2023/10/28 09:32:52;;;;;;;1.73;1.20;;;16.50;49.70;;;;;;20563;6837;117388;-73
2023/10/28 09:35:18;;;;;;;2.63;1.40;;;16.40;49.60;;;;;;20364;6835;278192;-73
2023/10/28 09:37:44;;;;;;;4.18;1.42;;;16.50;49.10;;;;;;20549;6836;121027;-72
2023/10/28 09:40:13;;;;;;;2.75;1.75;;;16.40;50.10;;;;;;20409;6836;281092;-72
2023/10/28 09:42:35;;;;;;;2.50;1.53;;;16.50;49.00;;;;;;20373;6836;285269;-74
2023/10/28 09:45:01;;;;;;;4.82;1.50;;;16.70;48.40;;;;;;20396;6836;336381;-74
2023/10/28 09:47:47;;;;;;;2.90;1.30;;;17.10;47.20;;;;;;20317;6836;314640;-73
2023/10/28 09:50:15;;;;;;;2.33;1.50;;;17.10;47.20;;;;;;20110;6836;307291;-74
2023/10/28 09:52:38;;;;;;;2.05;1.40;;;17.30;46.80;;;;;;20390;6836;286081;-72
2023/10/28 09:55:07;;;;;;;2.47;1.30;;;17.40;46.70;;;;;;20597;6836;126045;-72
2023/10/28 09:57:32;;;;;;;2.63;1.30;;;17.40;47.90;;;;;;20607;6836;118750;-72
2023/10/28 09:59:58;;;;;;;2.97;1.20;;;17.20;48.90;;;;;;20593;6836;122615;-72
2023/10/28 10:02:32;;;;;;;3.67;1.40;;;17.00;48.60;;;;;;20378;6836;321711;-72
2023/10/28 10:05:20;;;;;;;2.87;1.07;;;17.00;48.50;;;;;;20601;6836;118098;-73
2023/10/28 10:07:45;;;;;;;3.40;0.80;;;17.00;49.50;;;;;;20592;6836;117379;-73
2023/10/28 10:10:16;;;;;;;2.10;0.88;;;16.90;50.30;;;;;;20671;6836;117780;-71
2023/10/28 10:12:40;;;;;;;2.47;1.20;;;16.70;50.50;;;;;;20644;6837;119222;-71
2023/10/28 10:15:06;;;;;;;1.43;1.30;;;16.60;50.70;;;;;;20572;6837;118251;-72
2023/10/28 10:17:48;;;;;;;1.53;1.00;;;16.50;51.00;;;;;;20644;6837;117108;-72
2023/10/28 10:20:13;;;;;;;3.63;1.10;;;16.40;51.20;;;;;;20616;6837;122655;-72
2023/10/28 10:22:39;;;;;;;1.65;1.40;;;16.30;51.50;;;;;;20643;6837;116984;-73
2023/10/28 10:25:04;;;;;;;2.53;1.27;;;16.40;51.90;;;;;;20676;6837;119662;-73
2023/10/28 10:27:36;;;;;;;5.83;1.43;;;16.40;52.00;;;;;;20450;6837;309356;-71
2023/10/28 10:30:09;;;;;;;3.13;1.40;;;16.70;49.60;;;;;;20417;6837;289065;-73
2023/10/28 10:32:44;;;;;;;2.43;1.33;;;17.50;45.80;;;;;;20423;6837;330993;-73
2023/10/28 10:35:10;;;;;;;2.10;0.90;;;17.50;45.80;;;;;;20652;6837;117916;-73
2023/10/28 10:37:36;;;;;;;3.70;1.40;;;17.50;47.10;;;;;;20433;6837;316779;-72
2023/10/28 10:40:02;;;;;;;2.40;1.10;;;17.60;45.60;;;;;;20430;6837;337291;-72
2023/10/28 10:42:27;;;;;;;2.60;1.20;;;17.70;45.00;;;;;;20430;6837;277798;-71
2023/10/28 10:44:52;;;;;;;2.90;1.50;;;17.90;44.40;;;;;;20432;6837;327489;-72
2023/10/28 10:47:58;;;;;;;3.70;3.10;;;18.10;44.40;;;;;;20658;6835;117491;-72
2023/10/28 10:50:25;;;;;;;4.50;1.80;;;18.00;45.60;;;;;;20608;6836;116818;-73
2023/10/28 10:52:50;;;;;;;5.87;4.77;;;17.60;46.90;;;;;;20457;6836;283101;-73
2023/10/28 10:55:23;;;;;;;7.80;7.10;;;17.60;45.30;;;;;;20649;6836;116996;-72
2023/10/28 10:57:48;;;;;;;6.50;4.23;;;17.60;46.80;;;;;;20629;6836;123829;-72
2023/10/28 11:00:15;;;;;;;7.23;4.90;;;17.50;47.90;;;;;;20668;6836;117222;-74
2023/10/28 11:02:41;;;;;;;4.60;1.70;;;17.40;48.30;;;;;;20441;6836;308927;-73
2023/10/28 11:05:08;;;;;;;4.40;4.10;;;17.50;45.10;;;;;;20638;6836;117174;-77
2023/10/28 11:07:32;;;;;;;4.23;3.17;;;17.50;46.40;;;;;;20438;6836;307727;-75
2023/10/28 11:09:58;;;;;;;4.27;1.77;;;17.60;46.20;;;;;;20635;6836;122802;-75
2023/10/28 11:12:24;;;;;;;5.87;2.60;;;17.60;46.10;;;;;;20446;6836;306814;-74
2023/10/28 11:14:54;;;;;;;3.33;1.57;;;17.70;45.60;;;;;;20641;6836;117490;-72
2023/10/28 11:17:19;;;;;;;4.67;2.23;;;17.70;45.60;;;;;;20617;6836;121080;-74
2023/10/28 11:19:49;;;;;;;2.62;1.90;;;17.50;46.70;;;;;;20530;6836;120856;-72
2023/10/28 11:22:15;;;;;;;3.40;1.50;;;17.50;47.90;;;;;;20579;6836;118017;-73
2023/10/28 11:24:40;;;;;;;2.70;1.40;;;17.50;48.20;;;;;;20594;6837;117696;-73
2023/10/28 11:27:06;;;;;;;3.17;1.70;;;17.50;48.10;;;;;;20306;6837;286279;-73
2023/10/28 11:29:37;;;;;;;5.37;2.80;;;17.80;45.80;;;;;;20330;6837;321713;-75
2023/10/28 11:32:04;;;;;;;6.97;2.00;;;18.30;44.00;;;;;;20473;6837;117691;-73
2023/10/28 11:34:30;;;;;;;3.30;1.50;;;18.50;45.20;;;;;;20581;6837;117138;-75
2023/10/28 11:36:56;;;;;;;2.80;1.57;;;18.40;45.90;;;;;;20588;6837;121278;-74
2023/10/28 11:39:22;;;;;;;1.67;1.50;;;18.30;46.40;;;;;;20529;6837;120572;-73
2023/10/28 11:41:47;;;;;;;3.33;1.80;;;18.20;46.70;;;;;;20342;6837;279406;-75
2023/10/28 11:44:13;;;;;;;2.87;2.10;;;18.30;43.20;;;;;;20352;6837;301846;-74
2023/10/28 11:46:39;;;;;;;3.77;1.60;;;18.40;42.80;;;;;;20566;6837;119197;-74
2023/10/28 11:49:04;;;;;;;3.47;1.90;;;18.30;44.10;;;;;;20347;6837;306871;-74
2023/10/28 11:51:29;;;;;;;3.47;2.00;;;18.40;43.30;;;;;;20360;6837;315394;-73
2023/10/28 11:53:55;;;;;;;3.58;1.90;;;18.40;42.60;;;;;;20300;6837;291357;-74
2023/10/28 11:56:21;;;;;;;4.33;1.77;;;18.60;42.90;;;;;;20583;6837;119615;-74
2023/10/28 11:58:47;;;;;;;9.48;2.33;;;18.40;44.10;;;;;;20656;6835;121310;-75
2023/10/28 12:01:12;;;;;;;4.25;2.08;;;18.00;44.80;;;;;;20446;6836;298006;-75
2023/10/28 12:03:38;;;;;;;2.77;2.37;;;18.00;45.40;;;;;;20658;6836;119828;-74
2023/10/28 12:06:05;;;;;;;2.67;1.83;;;17.90;44.60;;;;;;20417;6836;307743;-74
2023/10/28 12:08:31;;;;;;;5.57;1.60;;;18.00;42.70;;;;;;20648;6836;119848;-73
2023/10/28 12:10:57;;;;;;;3.23;2.00;;;18.00;44.20;;;;;;20448;6836;307606;-77
2023/10/28 12:13:22;;;;;;;3.17;1.93;;;18.00;43.40;;;;;;20654;6836;118573;-74
2023/10/28 12:15:48;;;;;;;4.47;2.00;;;17.90;44.40;;;;;;20431;6836;308717;-75
2023/10/28 12:18:15;;;;;;;2.50;1.80;;;17.90;44.80;;;;;;20633;6836;117550;-75
2023/10/28 12:20:40;;;;;;;3.13;1.57;;;17.90;44.80;;;;;;20659;6836;118107;-75
2023/10/28 12:23:05;;;;;;;3.85;2.30;;;17.80;45.70;;;;;;20427;6836;336750;-73
2023/10/28 12:25:34;;;;;;;5.60;1.87;;;17.90;44.10;;;;;;20666;6836;116992;-74
2023/10/28 12:27:58;;;;;;;2.10;1.80;;;17.90;45.40;;;;;;20639;6836;127811;-74
2023/10/28 12:30:24;;;;;;;6.90;2.55;;;17.90;46.30;;;;;;20450;6836;306851;-74
2023/10/28 12:32:49;;;;;;;3.73;2.37;;;18.00;44.90;;;;;;20659;6836;117039;-74
2023/10/28 12:35:15;;;;;;;7.78;2.50;;;18.10;46.00;;;;;;20442;6836;316993;-73
2023/10/28 12:37:40;;;;;;;5.53;2.30;;;18.30;43.80;;;;;;20596;6837;121032;-74
2023/10/28 12:40:06;;;;;;;3.50;1.90;;;18.30;45.00;;;;;;20586;6859;121174;-73
2023/10/28 12:42:34;;;;;;;4.43;2.70;;;18.20;45.80;;;;;;20364;6859;279769;-74
2023/10/28 12:44:58;;;;;;;4.77;2.20;;;18.30;44.00;;;;;;20628;6844;117631;-72
2023/10/28 12:47:24;;;;;;;5.37;2.20;;;18.10;46.50;;;;;;20615;6849;117134;-74
2023/10/28 12:49:49;;;;;;;6.72;3.00;;;18.10;45.70;;;;;;20373;6849;316686;-74
2023/10/28 12:52:15;;;;;;;5.63;2.80;;;18.20;43.50;;;;;;20631;6849;117338;-74
2023/10/28 12:54:41;;;;;;;3.60;2.23;;;18.20;44.60;;;;;;20626;6849;117599;-73
2023/10/28 12:57:07;;;;;;;8.53;2.43;;;18.10;45.40;;;;;;20633;6849;117141;-72
2023/10/28 12:59:32;;;;;;;6.00;2.90;;;18.10;46.20;;;;;;20418;6849;308706;-78
2023/10/28 13:01:58;;;;;;;3.73;2.30;;;18.20;44.30;;;;;;20590;6849;117484;-75
2023/10/28 13:04:25;;;;;;;4.22;2.42;;;18.40;42.50;;;;;;20407;6849;309903;-74
2023/10/28 13:06:51;;;;;;;3.00;1.90;;;18.30;42.40;;;;;;20617;6849;118069;-81
2023/10/28 13:09:17;;;;;;;4.37;2.17;;;18.40;44.40;;;;;;20392;6847;300406;-79
2023/10/28 13:11:42;;;;;;;3.80;1.77;;;18.40;41.70;;;;;;20625;6848;117900;-77
2023/10/28 13:14:08;;;;;;;6.33;2.03;;;18.40;43.30;;;;;;20647;6849;118202;-75
2023/10/28 13:16:34;;;;;;;3.10;1.80;;;18.30;44.30;;;;;;20445;6849;308484;-76
2023/10/28 13:19:00;;;;;;;3.47;1.30;;;18.40;42.20;;;;;;20642;6849;117600;-76
2023/10/28 13:21:25;;;;;;;3.87;1.90;;;18.40;43.20;;;;;;20420;6849;308477;-76
2023/10/28 13:23:50;;;;;;;3.33;1.57;;;18.40;41.20;;;;;;20624;6849;123986;-76
2023/10/28 13:26:17;;;;;;;3.57;1.70;;;18.40;42.40;;;;;;20414;6849;281806;-76
2023/10/28 13:28:52;;;;;;;3.73;1.70;;;18.30;41.80;;;;;;20409;6849;310952;-77